createdAt,value
2019-06-07T00:02:19.028Z,25.00
2019-06-07T00:04:48.772Z,24.90
2019-06-07T00:07:21.763Z,24.90
2019-06-07T00:09:49.814Z,24.90
2019-06-07T00:12:21.414Z,24.80
2019-06-07T00:14:50.987Z,24.70
2019-06-07T00:17:20.661Z,24.70
2019-06-07T00:19:50.541Z,24.70
2019-06-07T00:22:32.430Z,24.60
2019-06-07T00:24:51.707Z,24.60
2019-06-07T00:27:27.649Z,24.50
2019-06-07T00:29:57.362Z,24.50
2019-06-07T00:32:27.189Z,24.50
2019-06-07T00:34:56.844Z,24.50
2019-06-07T00:37:26.499Z,24.40
2019-06-07T00:40:13.378Z,24.40
2019-06-07T00:42:27.611Z,24.30
2019-06-07T00:44:57.379Z,24.30
2019-06-07T00:47:27.083Z,24.30
2019-06-07T00:49:56.724Z,24.20
2019-06-07T00:54:57.820Z,24.10
2019-06-07T00:57:27.503Z,24.10
2019-06-07T00:59:57.211Z,24.10
2019-06-07T01:02:31.215Z,24.10
2019-06-07T01:04:58.344Z,24.10
2019-06-07T01:07:28.048Z,24.10
2019-06-07T01:09:57.739Z,24.10
2019-06-07T01:12:27.469Z,24.10
2019-06-07T01:14:57.228Z,24.10
2019-06-07T01:17:41.192Z,24.10
2019-06-07T01:19:59.451Z,24.10
2019-06-07T01:22:29.590Z,24.10
2019-06-07T01:24:59.428Z,24.10
2019-06-07T01:27:29.163Z,24.00
2019-06-07T01:29:58.889Z,24.00
2019-06-07T01:32:31.766Z,23.90
2019-06-07T01:35:00.364Z,23.80
2019-06-07T01:37:30.530Z,23.80
2019-06-07T01:40:00.339Z,23.80
2019-06-07T01:42:31.041Z,23.80
2019-06-07T01:45:00.947Z,23.80
2019-06-07T01:47:32.015Z,23.70
2019-06-07T01:50:02.300Z,23.60
2019-06-07T01:52:32.292Z,23.60
2019-06-07T01:55:02.158Z,23.60
2019-06-07T01:57:45.652Z,23.60
2019-06-07T02:00:03.836Z,23.50
2019-06-07T02:02:33.706Z,23.50
2019-06-07T02:05:03.611Z,23.50
2019-06-07T02:07:35.081Z,23.40
2019-06-07T02:10:05.918Z,23.50
2019-06-07T02:12:42.865Z,23.50
2019-06-07T02:15:08.939Z,23.40
2019-06-07T02:17:38.911Z,23.40
2019-06-07T02:20:09.562Z,23.40
2019-06-07T02:22:40.830Z,23.40
2019-06-07T02:25:37.399Z,23.40
2019-06-07T02:27:42.207Z,23.30
2019-06-07T02:32:43.745Z,23.20
2019-06-07T02:35:14.553Z,23.20
2019-06-07T02:37:44.290Z,23.20
2019-06-07T02:40:14.436Z,23.10
2019-06-07T02:42:44.281Z,23.00
2019-06-07T02:45:14.120Z,23.00
2019-06-07T02:47:45.520Z,23.00
2019-06-07T02:50:15.902Z,22.90
2019-06-07T02:52:45.889Z,22.90
2019-06-07T02:55:16.462Z,22.80
2019-06-07T02:57:46.275Z,22.80
2019-06-07T03:02:54.096Z,22.90
2019-06-07T03:05:25.092Z,22.90
2019-06-07T03:07:55.583Z,22.90
2019-06-07T03:10:28.568Z,22.90
2019-06-07T03:12:57.269Z,22.90
2019-06-07T03:15:35.467Z,22.90
2019-06-07T03:18:22.675Z,23.00
2019-06-07T03:21:05.077Z,23.00
2019-06-07T03:23:28.805Z,23.00
2019-06-07T03:26:00.435Z,23.00
2019-06-07T03:28:34.422Z,23.00
2019-06-07T03:31:03.342Z,23.00
2019-06-07T03:33:41.054Z,23.00
2019-06-07T03:36:23.210Z,23.00
2019-06-07T03:38:39.829Z,23.00
2019-06-07T03:41:09.763Z,23.00
2019-06-07T03:43:42.001Z,23.00
2019-06-07T03:46:11.785Z,23.10
2019-06-07T03:48:41.707Z,23.20
2019-06-07T03:51:24.276Z,23.20
2019-06-07T03:53:43.239Z,23.20
2019-06-07T03:56:13.647Z,23.30
2019-06-07T03:58:49.819Z,23.30
2019-06-07T04:01:15.284Z,23.30
2019-06-07T04:03:51.398Z,23.30
2019-06-07T04:06:16.442Z,23.30
2019-06-07T04:08:46.388Z,23.30
2019-06-07T04:11:16.232Z,23.40
2019-06-07T04:13:45.907Z,23.40
2019-06-07T04:16:15.548Z,23.50
2019-06-07T04:18:45.393Z,23.50
2019-06-07T04:21:15.258Z,23.50
2019-06-07T04:23:48.124Z,23.50
2019-06-07T04:26:19.040Z,23.50
2019-06-07T04:29:31.714Z,23.60
2019-06-07T04:31:20.234Z,23.70
2019-06-07T04:33:50.342Z,23.80
2019-06-07T04:36:39.233Z,23.80
2019-06-07T04:38:53.895Z,23.80
2019-06-07T04:41:25.529Z,23.80
2019-06-07T04:43:55.527Z,23.80
2019-06-07T04:46:25.763Z,23.80
2019-06-07T04:48:56.083Z,23.90
2019-06-07T04:51:27.091Z,23.90
2019-06-07T04:53:56.773Z,23.90
2019-06-07T04:56:26.529Z,24.00
2019-06-07T04:58:56.296Z,23.90
2019-06-07T05:01:27.740Z,24.00
2019-06-07T05:03:57.309Z,24.00
2019-06-07T05:06:26.974Z,24.10
2019-06-07T05:08:56.654Z,24.10
2019-06-07T05:11:26.457Z,24.10
2019-06-07T05:13:56.308Z,24.00
2019-06-07T05:16:25.983Z,23.90
2019-06-07T05:18:55.642Z,23.90
2019-06-07T05:21:25.335Z,23.90
2019-06-07T05:24:07.396Z,24.00
2019-06-07T05:26:30.489Z,24.10
2019-06-07T05:29:01.131Z,24.20
2019-06-07T05:31:31.786Z,24.30
2019-06-07T05:34:08.042Z,24.30
2019-06-07T05:36:41.408Z,24.40
2019-06-07T05:39:10.202Z,24.50
2019-06-07T05:41:42.734Z,24.50
2019-06-07T05:44:13.122Z,24.50
2019-06-07T05:46:46.708Z,24.50
2019-06-07T05:49:14.111Z,24.60
2019-06-07T05:51:45.036Z,24.70
2019-06-07T05:54:15.115Z,24.70
2019-06-07T05:56:45.359Z,24.70
2019-06-07T05:59:15.250Z,24.70
2019-06-07T06:01:55.938Z,24.70
2019-06-07T06:04:16.261Z,24.80
2019-06-07T06:06:47.209Z,24.80
2019-06-07T06:09:17.314Z,24.90
2019-06-07T06:11:59.547Z,24.90
2019-06-07T06:14:18.810Z,25.00
2019-06-07T06:16:50.214Z,25.10
2019-06-07T06:19:19.940Z,25.20
2019-06-07T06:21:49.587Z,25.20
2019-06-07T06:24:21.149Z,25.10
2019-06-07T06:26:55.085Z,25.00
2019-06-07T06:29:22.163Z,25.10
2019-06-07T06:32:39.524Z,25.10
2019-06-07T06:34:23.289Z,25.10
2019-06-07T06:36:53.124Z,25.60
2019-06-07T06:39:22.882Z,25.10
2019-06-07T06:42:01.078Z,25.20
2019-06-07T06:44:23.910Z,25.20
2019-06-07T06:46:58.153Z,25.20
2019-06-07T06:49:25.092Z,25.20
2019-06-07T06:51:54.772Z,25.30
2019-06-07T06:54:40.170Z,25.20
2019-06-07T06:57:17.309Z,25.20
2019-06-07T06:59:39.998Z,25.10
2019-06-07T07:02:09.338Z,25.20
2019-06-07T07:04:41.824Z,25.20
2019-06-07T07:07:10.773Z,25.10
2019-06-07T07:09:43.774Z,25.10
2019-06-07T07:12:15.127Z,25.10
2019-06-07T07:14:47.345Z,25.10
2019-06-07T07:17:16.348Z,25.10
2019-06-07T07:19:48.453Z,25.10
2019-06-07T07:22:17.399Z,25.20
2019-06-07T07:24:49.754Z,25.10
2019-06-07T07:27:18.388Z,25.10
2019-06-07T07:29:56.406Z,25.10
2019-06-07T07:32:19.420Z,25.10
2019-06-07T07:34:51.795Z,25.10
2019-06-07T07:37:20.504Z,25.00
2019-06-07T07:39:54.098Z,25.00
2019-06-07T07:42:22.031Z,25.00
2019-06-07T07:44:54.610Z,25.00
2019-06-07T07:47:23.061Z,25.00
2019-06-07T07:49:56.476Z,25.10
2019-06-07T07:52:24.134Z,25.10
2019-06-07T07:54:57.791Z,25.10
2019-06-07T07:57:25.235Z,25.10
2019-06-07T08:00:25.271Z,24.70
2019-06-07T08:02:26.248Z,25.10
2019-06-07T08:05:25.557Z,25.10
2019-06-07T08:07:33.309Z,25.10
2019-06-07T08:10:04.066Z,25.20
2019-06-07T08:12:55.608Z,25.30
2019-06-07T08:15:06.451Z,25.40
2019-06-07T08:17:36.101Z,25.40
2019-06-07T08:20:06.326Z,25.40
2019-06-07T08:22:36.081Z,25.40
2019-06-07T08:25:06.067Z,25.40
2019-06-07T08:27:35.829Z,25.50
2019-06-07T08:30:35.041Z,25.70
2019-06-07T08:32:37.894Z,25.80
2019-06-07T08:35:08.305Z,26.00
2019-06-07T08:40:09.982Z,26.20
2019-06-07T08:42:59.709Z,26.20
2019-06-07T08:45:11.792Z,26.30
2019-06-07T08:47:41.428Z,26.40
2019-06-07T08:50:11.932Z,26.40
2019-06-07T08:55:11.138Z,26.50
2019-06-07T09:00:42.420Z,26.60
2019-06-07T09:05:12.502Z,26.50
2019-06-07T09:10:14.220Z,26.40
2019-06-07T09:12:43.604Z,26.40
2019-06-07T09:15:22.771Z,26.60
2019-06-07T09:18:30.199Z,26.90
2019-06-07T09:20:35.755Z,27.00
2019-06-07T09:22:49.494Z,26.50
2019-06-07T09:25:21.642Z,26.90
2019-06-07T09:27:51.067Z,26.90
2019-06-07T09:30:38.948Z,26.80
2019-06-07T09:33:09.119Z,26.80
2019-06-07T09:35:39.948Z,26.70
2019-06-07T09:38:23.703Z,26.80
2019-06-07T09:40:41.597Z,26.90
2019-06-07T09:45:42.663Z,26.90
2019-06-07T09:48:16.236Z,26.90
2019-06-07T09:50:43.891Z,27.00
2019-06-07T09:53:22.838Z,27.00
2019-06-07T09:55:44.882Z,27.10
2019-06-07T09:58:50.116Z,27.10
2019-06-07T10:00:46.095Z,27.00
2019-06-07T10:03:21.052Z,27.10
2019-06-07T10:05:47.288Z,27.10
2019-06-07T10:09:26.279Z,27.10
2019-06-07T10:10:48.431Z,27.20
2019-06-07T10:13:18.146Z,27.20
2019-06-07T10:15:47.923Z,27.20
2019-06-07T10:18:18.007Z,27.30
2019-06-07T10:20:48.066Z,27.40
2019-06-07T10:23:17.802Z,27.50
2019-06-07T10:25:47.463Z,27.70
2019-06-07T10:28:17.171Z,27.70
2019-06-07T10:30:46.920Z,27.70
2019-06-07T10:33:16.573Z,27.70
2019-06-07T10:35:46.294Z,27.70
2019-06-07T10:38:15.991Z,27.60
2019-06-07T10:40:45.734Z,27.50
2019-06-07T10:43:15.486Z,27.50
2019-06-07T10:45:45.239Z,27.40
2019-06-07T10:48:15.346Z,27.40
2019-06-07T10:50:46.548Z,27.30
2019-06-07T10:53:16.290Z,27.40
2019-06-07T10:55:45.967Z,27.20
2019-06-07T10:58:15.587Z,27.70
2019-06-07T11:00:45.254Z,27.30
2019-06-07T11:03:14.941Z,27.30
2019-06-07T11:05:44.653Z,27.30
2019-06-07T11:08:15.040Z,27.40
2019-06-07T11:10:44.954Z,27.40
2019-06-07T11:13:14.596Z,27.50
2019-06-07T11:15:44.408Z,27.50
2019-06-07T11:18:14.438Z,27.60
2019-06-07T11:20:44.738Z,27.70
2019-06-07T11:23:14.574Z,27.90
2019-06-07T11:25:44.301Z,28.00
2019-06-07T11:28:14.702Z,28.00
2019-06-07T11:30:44.556Z,28.10
2019-06-07T11:33:16.334Z,28.10
2019-06-07T11:35:45.643Z,28.20
2019-06-07T11:38:15.361Z,28.20
2019-06-07T11:40:45.114Z,28.30
2019-06-07T11:43:15.047Z,28.40
2019-06-07T11:45:44.774Z,28.50
2019-06-07T11:48:15.505Z,28.40
2019-06-07T11:50:45.344Z,28.40
2019-06-07T11:53:15.046Z,28.40
2019-06-07T11:55:44.779Z,28.40
2019-06-07T11:58:18.983Z,28.40
2019-06-07T12:00:47.479Z,28.50
2019-06-07T12:03:18.047Z,28.60
2019-06-07T12:05:47.954Z,28.70
2019-06-07T12:08:18.208Z,28.90
2019-06-07T12:10:48.286Z,29.00
2019-06-07T12:13:18.974Z,29.00
2019-06-07T12:15:49.387Z,29.00
2019-06-07T12:18:19.761Z,29.00
2019-06-07T12:20:49.569Z,29.00
2019-06-07T12:23:20.176Z,29.00
2019-06-07T12:25:50.021Z,29.10
2019-06-07T12:28:20.917Z,29.20
2019-06-07T12:30:50.701Z,29.20
2019-06-07T12:33:21.603Z,29.40
2019-06-07T12:35:51.512Z,29.50
2019-06-07T12:38:22.943Z,29.60
2019-06-07T12:40:57.551Z,29.60
2019-06-07T12:43:24.301Z,29.60
2019-06-07T12:45:54.029Z,29.60
2019-06-07T12:48:25.939Z,29.70
2019-06-07T12:50:55.211Z,29.80
2019-06-07T12:53:27.980Z,29.90
2019-06-07T12:55:59.886Z,30.10
2019-06-07T12:58:34.483Z,30.10
2019-06-07T13:01:01.861Z,30.10
2019-06-07T13:03:31.487Z,30.10
2019-06-07T13:06:01.272Z,30.00
2019-06-07T13:08:31.006Z,30.10
2019-06-07T13:11:14.077Z,30.20
2019-06-07T13:13:32.124Z,30.30
2019-06-07T13:16:01.925Z,30.40
2019-06-07T13:18:34.097Z,30.60
2019-06-07T13:21:05.445Z,30.70
2019-06-07T13:23:37.896Z,30.80
2019-06-07T13:26:07.596Z,30.60
2019-06-07T13:28:37.381Z,30.60
2019-06-07T13:31:07.069Z,30.70
2019-06-07T13:33:38.821Z,30.80
2019-06-07T13:36:08.178Z,30.90
2019-06-07T13:38:38.197Z,30.90
2019-06-07T13:41:07.831Z,30.80
2019-06-07T13:43:37.626Z,31.00
2019-06-07T13:46:07.250Z,31.30
2019-06-07T13:51:36.356Z,31.60
2019-06-07T13:54:06.113Z,31.60
2019-06-07T13:56:35.762Z,31.40
2019-06-07T13:59:05.598Z,31.10
2019-06-07T14:01:35.254Z,30.80
2019-06-07T14:04:05.008Z,30.60
2019-06-07T14:06:34.738Z,30.60
2019-06-07T14:09:05.907Z,30.40
2019-06-07T14:11:50.050Z,30.20
2019-06-07T14:14:06.966Z,30.10
2019-06-07T14:16:36.641Z,30.10
2019-06-07T14:19:06.313Z,30.30
2019-06-07T14:21:35.970Z,30.70
2019-06-07T14:24:05.760Z,31.00
2019-06-07T14:26:35.377Z,31.30
2019-06-07T14:29:05.154Z,31.30
2019-06-07T14:31:34.794Z,31.50
2019-06-07T14:34:04.577Z,31.70
2019-06-07T14:36:34.570Z,32.00
2019-06-07T14:39:05.556Z,32.40
2019-06-07T14:41:35.404Z,32.80
2019-06-07T14:44:05.511Z,33.40
2019-06-07T14:46:35.172Z,34.00
2019-06-07T14:49:04.816Z,34.30
2019-06-07T14:51:35.310Z,34.30
2019-06-07T14:54:05.235Z,34.40
2019-06-07T14:56:35.313Z,34.50
2019-06-07T14:59:05.332Z,34.60
2019-06-07T15:01:35.595Z,34.60
2019-06-07T15:04:05.873Z,34.80
2019-06-07T15:06:35.625Z,34.80
2019-06-07T15:09:06.842Z,34.80
2019-06-07T15:11:36.717Z,35.00
2019-06-07T15:14:06.706Z,35.40
2019-06-07T15:19:12.380Z,36.70
2019-06-07T15:21:42.220Z,37.30
2019-06-07T15:24:11.908Z,37.70
2019-06-07T15:26:41.679Z,38.00
2019-06-07T15:29:11.345Z,38.30
2019-06-07T15:31:41.037Z,38.40
2019-06-07T15:34:10.709Z,38.50
2019-06-07T15:36:40.356Z,38.30
2019-06-07T15:39:10.210Z,37.90
2019-06-07T15:41:40.041Z,37.70
2019-06-07T15:44:09.862Z,37.70
2019-06-07T15:52:01.280Z,38.60
2019-06-07T15:54:30.900Z,38.50
2019-06-07T15:57:03.980Z,38.30
2019-06-07T15:59:35.695Z,38.30
2019-06-07T16:02:05.036Z,38.20
2019-06-07T16:04:48.923Z,38.30
2019-06-07T16:07:18.835Z,38.60
2019-06-07T16:09:55.270Z,38.90
2019-06-07T16:12:24.980Z,39.00
2019-06-07T16:14:54.666Z,39.30
2019-06-07T16:17:24.468Z,39.60
2019-06-07T16:19:54.226Z,39.80
2019-06-07T16:22:23.955Z,40.10
2019-06-07T16:24:53.858Z,40.40
2019-06-07T16:29:59.800Z,40.90
2019-06-07T16:32:29.960Z,41.10
2019-06-07T16:34:59.680Z,40.90
2019-06-07T16:37:29.409Z,40.60
2019-06-07T16:39:59.290Z,40.60
2019-06-07T16:42:29.058Z,40.80
2019-06-07T16:45:01.591Z,40.80
2019-06-07T16:47:31.359Z,40.60
2019-06-07T16:50:01.076Z,40.60
2019-06-07T16:52:30.787Z,40.60
2019-06-07T16:55:01.818Z,40.70
2019-06-07T16:57:31.587Z,40.90
2019-06-07T17:00:01.235Z,40.90
2019-06-07T17:02:30.966Z,40.90
2019-06-07T17:05:00.620Z,40.60
2019-06-07T17:07:30.367Z,40.20
2019-06-07T17:10:00.070Z,39.80
2019-06-07T17:12:29.716Z,39.10
2019-06-07T17:14:59.362Z,38.40
2019-06-07T17:17:29.053Z,37.70
2019-06-07T17:19:58.733Z,37.10
2019-06-07T17:22:28.556Z,36.60
2019-06-07T17:24:58.271Z,36.20
2019-06-07T17:27:27.981Z,35.80
2019-06-07T17:29:57.809Z,35.50
2019-06-07T17:32:27.541Z,35.10
2019-06-07T17:34:57.271Z,34.60
2019-06-07T17:37:26.888Z,34.00
2019-06-07T17:39:56.616Z,33.60
2019-06-07T17:42:26.306Z,33.10
2019-06-07T17:44:55.946Z,32.70
2019-06-07T17:47:25.662Z,32.30
2019-06-07T17:49:55.326Z,31.90
2019-06-07T17:52:25.083Z,31.60
2019-06-07T17:54:54.781Z,31.30
2019-06-07T17:57:24.525Z,31.00
2019-06-07T17:59:54.202Z,30.80
2019-06-07T18:02:24.057Z,30.70
2019-06-07T18:04:53.936Z,30.50
2019-06-07T18:07:24.884Z,30.40
2019-06-07T18:09:55.981Z,30.20
2019-06-07T18:12:25.838Z,30.10
2019-06-07T18:14:55.693Z,30.00
2019-06-07T18:17:34.046Z,30.10
2019-06-07T18:19:56.773Z,30.30
2019-06-07T18:22:32.566Z,30.60
2019-06-07T18:25:02.821Z,30.80
2019-06-07T18:27:32.497Z,31.00
2019-06-07T18:30:10.797Z,31.10
2019-06-07T18:32:33.628Z,31.20
2019-06-07T18:35:03.372Z,31.30
2019-06-07T18:37:33.556Z,31.20
2019-06-07T18:40:04.004Z,31.10
2019-06-07T18:42:33.916Z,31.00
2019-06-07T18:45:03.808Z,30.80
2019-06-07T18:47:33.716Z,30.70
2019-06-07T18:50:03.684Z,30.60
2019-06-07T18:52:35.735Z,30.40
2019-06-07T18:55:06.186Z,30.30
2019-06-07T18:57:37.164Z,30.10
2019-06-07T19:00:08.499Z,30.00
2019-06-07T19:02:40.174Z,29.80
2019-06-07T19:05:14.074Z,29.60
2019-06-07T19:07:43.961Z,29.40
2019-06-07T19:10:14.185Z,29.30
2019-06-07T19:12:44.100Z,29.10
2019-06-07T19:15:15.329Z,29.00
2019-06-07T19:17:45.374Z,28.90
2019-06-07T19:20:18.814Z,28.80
2019-06-07T19:22:49.993Z,28.60
2019-06-07T19:25:20.304Z,28.50
2019-06-07T19:27:50.660Z,28.40
2019-06-07T19:30:22.921Z,28.30
2019-06-07T19:32:53.168Z,28.10
2019-06-07T19:35:23.338Z,28.00
2019-06-07T19:37:53.826Z,27.90
2019-06-07T19:40:24.012Z,27.80
2019-06-07T19:42:58.505Z,27.70
2019-06-07T19:45:31.464Z,27.60
2019-06-07T19:48:00.799Z,27.60
2019-06-07T19:50:30.839Z,27.60
2019-06-07T19:53:01.297Z,27.50
2019-06-07T19:55:33.680Z,27.50
2019-06-07T19:58:03.945Z,27.50
2019-06-07T20:00:34.124Z,27.40
2019-06-07T20:03:04.477Z,27.40
2019-06-07T20:05:34.553Z,27.40
2019-06-07T20:08:04.894Z,27.30
2019-06-07T20:10:35.081Z,27.20
2019-06-07T20:13:05.286Z,27.20
2019-06-07T20:15:35.367Z,27.10
2019-06-07T20:18:05.675Z,27.10
2019-06-07T20:20:35.749Z,27.00
2019-06-07T20:23:05.846Z,27.00
2019-06-07T20:25:35.630Z,26.90
2019-06-07T20:28:05.671Z,26.90
2019-06-07T20:30:35.651Z,26.80
2019-06-07T20:33:06.182Z,26.70
2019-06-07T20:35:36.175Z,26.70
2019-06-07T20:38:06.023Z,26.60
2019-06-07T20:40:35.814Z,26.50
2019-06-07T20:43:05.835Z,26.40
2019-06-07T20:45:35.842Z,26.40
2019-06-07T20:48:06.334Z,26.40
2019-06-07T20:50:36.252Z,26.30
2019-06-07T20:53:07.184Z,26.20
2019-06-07T20:55:37.097Z,26.20
2019-06-07T20:58:07.248Z,26.10
2019-06-07T21:00:37.310Z,26.10
2019-06-07T21:03:07.521Z,26.10
2019-06-07T21:05:37.287Z,26.10
2019-06-07T21:08:09.807Z,26.10
2019-06-07T21:10:38.316Z,26.10
2019-06-07T21:13:08.223Z,26.00
2019-06-07T21:15:48.230Z,26.00
2019-06-07T21:18:18.543Z,25.90
2019-06-07T21:20:40.835Z,25.80
2019-06-07T21:23:12.003Z,25.90
2019-06-07T21:25:42.133Z,25.80
2019-06-07T21:28:12.061Z,25.80
2019-06-07T21:30:41.873Z,25.70
2019-06-07T21:33:11.914Z,25.60
2019-06-07T21:35:42.353Z,25.60
2019-06-07T21:38:12.786Z,25.60
2019-06-07T21:40:42.581Z,25.60
2019-06-07T21:43:12.744Z,25.60
2019-06-07T21:45:42.788Z,25.50
2019-06-07T21:48:14.245Z,25.40
2019-06-07T21:50:43.860Z,25.40
2019-06-07T21:53:13.552Z,25.40
2019-06-07T21:55:43.288Z,25.40
2019-06-07T21:58:13.577Z,25.40
2019-06-07T22:01:25.010Z,25.40
2019-06-07T22:03:54.700Z,25.40
2019-06-07T22:06:24.451Z,25.30
2019-06-07T22:08:54.114Z,25.30
2019-06-07T22:11:23.898Z,25.20
2019-06-07T22:13:53.684Z,25.20
2019-06-07T22:16:28.977Z,25.20
2019-06-07T22:18:54.766Z,25.30
2019-06-07T22:21:24.455Z,25.20
2019-06-07T22:23:54.090Z,25.20
2019-06-07T22:26:23.749Z,25.10
2019-06-07T22:28:53.524Z,25.00
2019-06-07T22:31:23.196Z,24.90
2019-06-07T22:33:52.903Z,24.80
2019-06-07T22:36:22.716Z,24.80
2019-06-07T22:38:52.371Z,24.80
2019-06-07T22:41:22.115Z,24.70
2019-06-07T22:43:51.962Z,24.70
2019-06-07T22:46:36.367Z,24.60
2019-06-07T22:48:52.929Z,24.50
2019-06-07T22:51:22.663Z,24.50
2019-06-07T22:53:52.355Z,24.50
2019-06-07T22:56:30.146Z,24.40
2019-06-07T22:58:59.850Z,24.30
2019-06-07T23:01:29.482Z,24.30
2019-06-07T23:03:59.219Z,24.30
2019-06-07T23:06:28.910Z,24.20
2019-06-07T23:08:58.536Z,24.10
2019-06-07T23:11:28.292Z,24.10
2019-06-07T23:13:57.915Z,24.10
2019-06-07T23:16:27.616Z,24.10
2019-06-07T23:18:57.387Z,24.10
2019-06-07T23:21:27.063Z,24.00
2019-06-07T23:23:56.707Z,24.00
2019-06-07T23:26:26.379Z,23.90
2019-06-07T23:28:56.058Z,23.90
2019-06-07T23:31:25.683Z,23.80
2019-06-07T23:33:55.324Z,23.80
2019-06-07T23:36:25.070Z,23.80
2019-06-07T23:38:54.759Z,23.70
2019-06-07T23:41:24.428Z,23.70
2019-06-07T23:43:54.103Z,23.70
2019-06-07T23:46:23.838Z,23.70
2019-06-07T23:48:53.559Z,23.70
2019-06-07T23:51:23.438Z,23.70
2019-06-07T23:53:53.133Z,23.60
2019-06-07T23:56:22.812Z,23.60
2019-06-07T23:58:52.473Z,23.60
